sensor_id;sensor_type;location;lat;lon;timestamp;P1;durP1;ratioP1;P2;durP2;ratioP2
1721;SDS011;858;53.190;8.596;2023-04-24T00:01:46;3.30;;;3.00;;
1721;SDS011;858;53.190;8.596;2023-04-24T00:04:13;3.08;;;2.78;;
1721;SDS011;858;53.190;8.596;2023-04-24T00:06:41;3.47;;;3.00;;
1721;SDS011;858;53.190;8.596;2023-04-24T00:09:08;3.35;;;3.05;;
1721;SDS011;858;53.190;8.596;2023-04-24T00:11:36;3.35;;;3.08;;
1721;SDS011;858;53.190;8.596;2023-04-24T00:14:02;4.05;;;3.60;;
1721;SDS011;858;53.190;8.596;2023-04-24T00:16:29;3.70;;;3.40;;
1721;SDS011;858;53.190;8.596;2023-04-24T00:18:55;3.80;;;3.10;;
1721;SDS011;858;53.190;8.596;2023-04-24T00:21:22;3.80;;;3.40;;
1721;SDS011;858;53.190;8.596;2023-04-24T00:23:50;4.97;;;3.40;;
1721;SDS011;858;53.190;8.596;2023-04-24T00:26:17;3.70;;;3.40;;
1721;SDS011;858;53.190;8.596;2023-04-24T00:28:46;3.70;;;3.40;;
1721;SDS011;858;53.190;8.596;2023-04-24T00:31:12;4.22;;;3.58;;
1721;SDS011;858;53.190;8.596;2023-04-24T00:33:39;3.92;;;3.50;;
1721;SDS011;858;53.190;8.596;2023-04-24T00:36:06;3.35;;;3.05;;
1721;SDS011;858;53.190;8.596;2023-04-24T00:38:32;4.43;;;3.85;;
1721;SDS011;858;53.190;8.596;2023-04-24T00:40:58;3.53;;;3.22;;
1721;SDS011;858;53.190;8.596;2023-04-24T00:43:25;3.78;;;3.47;;
1721;SDS011;858;53.190;8.596;2023-04-24T00:45:55;3.42;;;3.13;;
1721;SDS011;858;53.190;8.596;2023-04-24T00:48:21;2.90;;;2.70;;
1721;SDS011;858;53.190;8.596;2023-04-24T00:50:49;3.13;;;2.80;;
1721;SDS011;858;53.190;8.596;2023-04-24T00:53:15;3.22;;;2.97;;
1721;SDS011;858;53.190;8.596;2023-04-24T00:55:43;3.60;;;3.30;;
1721;SDS011;858;53.190;8.596;2023-04-24T00:58:09;3.70;;;3.40;;
1721;SDS011;858;53.190;8.596;2023-04-24T01:00:37;4.22;;;3.92;;
1721;SDS011;858;53.190;8.596;2023-04-24T01:03:08;3.00;;;2.70;;
1721;SDS011;858;53.190;8.596;2023-04-24T01:05:38;3.03;;;2.80;;
1721;SDS011;858;53.190;8.596;2023-04-24T01:08:05;2.80;;;2.60;;
1721;SDS011;858;53.190;8.596;2023-04-24T01:10:31;2.90;;;2.50;;
1721;SDS011;858;53.190;8.596;2023-04-24T01:12:59;2.97;;;2.78;;
1721;SDS011;858;53.190;8.596;2023-04-24T01:15:25;3.10;;;2.88;;
1721;SDS011;858;53.190;8.596;2023-04-24T01:17:52;3.70;;;3.10;;
1721;SDS011;858;53.190;8.596;2023-04-24T01:20:20;3.70;;;3.40;;
1721;SDS011;858;53.190;8.596;2023-04-24T01:22:48;3.58;;;3.38;;
1721;SDS011;858;53.190;8.596;2023-04-24T01:25:14;3.40;;;3.10;;
1721;SDS011;858;53.190;8.596;2023-04-24T01:27:41;3.50;;;3.30;;
1721;SDS011;858;53.190;8.596;2023-04-24T01:30:07;3.78;;;3.47;;
1721;SDS011;858;53.190;8.596;2023-04-24T01:32:34;3.70;;;3.40;;
1721;SDS011;858;53.190;8.596;2023-04-24T01:35:01;4.00;;;3.70;;
1721;SDS011;858;53.190;8.596;2023-04-24T01:37:28;3.90;;;3.60;;
1721;SDS011;858;53.190;8.596;2023-04-24T01:39:58;4.10;;;3.80;;
1721;SDS011;858;53.190;8.596;2023-04-24T01:42:25;4.30;;;4.00;;
1721;SDS011;858;53.190;8.596;2023-04-24T01:44:51;4.30;;;4.00;;
1721;SDS011;858;53.190;8.596;2023-04-24T01:47:18;4.38;;;4.00;;
1721;SDS011;858;53.190;8.596;2023-04-24T01:49:47;4.20;;;3.80;;
1721;SDS011;858;53.190;8.596;2023-04-24T01:52:13;4.00;;;3.70;;
1721;SDS011;858;53.190;8.596;2023-04-24T01:54:41;5.03;;;4.00;;
1721;SDS011;858;53.190;8.596;2023-04-24T01:57:09;3.97;;;3.63;;
1721;SDS011;858;53.190;8.596;2023-04-24T01:59:35;4.80;;;3.83;;
1721;SDS011;858;53.190;8.596;2023-04-24T02:02:02;4.00;;;3.60;;
1721;SDS011;858;53.190;8.596;2023-04-24T02:04:28;4.32;;;3.92;;
1721;SDS011;858;53.190;8.596;2023-04-24T02:06:55;4.05;;;3.75;;
1721;SDS011;858;53.190;8.596;2023-04-24T02:09:21;4.07;;;3.78;;
1721;SDS011;858;53.190;8.596;2023-04-24T02:11:48;4.30;;;3.90;;
1721;SDS011;858;53.190;8.596;2023-04-24T02:14:15;3.90;;;3.50;;
1721;SDS011;858;53.190;8.596;2023-04-24T02:16:42;4.00;;;3.60;;
1721;SDS011;858;53.190;8.596;2023-04-24T02:19:08;3.80;;;3.50;;
1721;SDS011;858;53.190;8.596;2023-04-24T02:21:35;4.78;;;3.50;;
1721;SDS011;858;53.190;8.596;2023-04-24T02:24:02;4.30;;;3.40;;
1721;SDS011;858;53.190;8.596;2023-04-24T02:26:28;4.32;;;4.03;;
1721;SDS011;858;53.190;8.596;2023-04-24T02:28:56;4.57;;;4.22;;
1721;SDS011;858;53.190;8.596;2023-04-24T02:31:24;4.33;;;3.90;;
1721;SDS011;858;53.190;8.596;2023-04-24T02:33:50;4.30;;;3.80;;
1721;SDS011;858;53.190;8.596;2023-04-24T02:36:17;4.60;;;4.30;;
1721;SDS011;858;53.190;8.596;2023-04-24T02:38:43;4.13;;;3.83;;
1721;SDS011;858;53.190;8.596;2023-04-24T02:41:10;4.40;;;4.10;;
1721;SDS011;858;53.190;8.596;2023-04-24T02:43:37;4.63;;;4.13;;
1721;SDS011;858;53.190;8.596;2023-04-24T02:46:03;4.30;;;3.90;;
1721;SDS011;858;53.190;8.596;2023-04-24T02:48:31;4.68;;;4.00;;
1721;SDS011;858;53.190;8.596;2023-04-24T02:50:58;4.20;;;3.80;;
1721;SDS011;858;53.190;8.596;2023-04-24T02:53:24;4.15;;;3.85;;
1721;SDS011;858;53.190;8.596;2023-04-24T02:55:50;4.70;;;4.20;;
1721;SDS011;858;53.190;8.596;2023-04-24T02:58:17;4.95;;;4.55;;
1721;SDS011;858;53.190;8.596;2023-04-24T03:00:45;5.68;;;5.18;;
1721;SDS011;858;53.190;8.596;2023-04-24T03:03:13;6.28;;;5.78;;
1721;SDS011;858;53.190;8.596;2023-04-24T03:05:41;6.47;;;5.90;;
1721;SDS011;858;53.190;8.596;2023-04-24T03:08:07;7.43;;;6.82;;
1721;SDS011;858;53.190;8.596;2023-04-24T03:10:34;8.38;;;7.68;;
1721;SDS011;858;53.190;8.596;2023-04-24T03:13:00;8.18;;;7.47;;
1721;SDS011;858;53.190;8.596;2023-04-24T03:15:27;9.23;;;8.40;;
1721;SDS011;858;53.190;8.596;2023-04-24T03:17:54;8.85;;;7.97;;
1721;SDS011;858;53.190;8.596;2023-04-24T03:20:20;8.70;;;7.90;;
1721;SDS011;858;53.190;8.596;2023-04-24T03:22:48;8.80;;;7.90;;
1721;SDS011;858;53.190;8.596;2023-04-24T03:25:15;8.73;;;8.00;;
1721;SDS011;858;53.190;8.596;2023-04-24T03:27:41;9.50;;;8.55;;
1721;SDS011;858;53.190;8.596;2023-04-24T03:30:08;9.82;;;8.93;;
1721;SDS011;858;53.190;8.596;2023-04-24T03:32:34;10.05;;;8.95;;
1721;SDS011;858;53.190;8.596;2023-04-24T03:35:01;8.70;;;7.90;;
1721;SDS011;858;53.190;8.596;2023-04-24T03:37:27;9.52;;;8.63;;
1721;SDS011;858;53.190;8.596;2023-04-24T03:39:55;8.95;;;8.05;;
1721;SDS011;858;53.190;8.596;2023-04-24T03:42:22;8.60;;;7.90;;
1721;SDS011;858;53.190;8.596;2023-04-24T03:44:48;9.18;;;8.38;;
1721;SDS011;858;53.190;8.596;2023-04-24T03:47:14;8.10;;;7.43;;
1721;SDS011;858;53.190;8.596;2023-04-24T03:49:41;8.57;;;7.82;;
1721;SDS011;858;53.190;8.596;2023-04-24T03:52:08;8.10;;;7.40;;
1721;SDS011;858;53.190;8.596;2023-04-24T03:54:35;8.47;;;7.63;;
1721;SDS011;858;53.190;8.596;2023-04-24T03:57:02;8.60;;;7.80;;
1721;SDS011;858;53.190;8.596;2023-04-24T03:59:29;8.15;;;7.30;;
1721;SDS011;858;53.190;8.596;2023-04-24T04:01:56;8.30;;;7.60;;
1721;SDS011;858;53.190;8.596;2023-04-24T04:04:22;7.87;;;7.13;;
1721;SDS011;858;53.190;8.596;2023-04-24T04:06:49;7.70;;;7.00;;
1721;SDS011;858;53.190;8.596;2023-04-24T04:09:16;8.50;;;7.70;;
1721;SDS011;858;53.190;8.596;2023-04-24T04:11:42;8.80;;;8.00;;
1721;SDS011;858;53.190;8.596;2023-04-24T04:14:12;8.82;;;7.80;;
1721;SDS011;858;53.190;8.596;2023-04-24T04:16:39;9.20;;;8.30;;
1721;SDS011;858;53.190;8.596;2023-04-24T04:19:05;9.38;;;8.10;;
1721;SDS011;858;53.190;8.596;2023-04-24T04:21:32;9.10;;;8.20;;
1721;SDS011;858;53.190;8.596;2023-04-24T04:23:58;9.67;;;8.70;;
1721;SDS011;858;53.190;8.596;2023-04-24T04:26:25;10.18;;;9.18;;
1721;SDS011;858;53.190;8.596;2023-04-24T04:28:52;9.85;;;8.85;;
1721;SDS011;858;53.190;8.596;2023-04-24T04:31:20;9.57;;;8.57;;
1721;SDS011;858;53.190;8.596;2023-04-24T04:33:47;9.57;;;8.57;;
1721;SDS011;858;53.190;8.596;2023-04-24T04:36:13;10.20;;;9.20;;
1721;SDS011;858;53.190;8.596;2023-04-24T04:38:39;9.50;;;8.60;;
1721;SDS011;858;53.190;8.596;2023-04-24T04:41:08;9.93;;;9.00;;
1721;SDS011;858;53.190;8.596;2023-04-24T04:43:34;9.43;;;8.43;;
1721;SDS011;858;53.190;8.596;2023-04-24T04:46:01;9.68;;;8.77;;
1721;SDS011;858;53.190;8.596;2023-04-24T04:48:30;9.10;;;8.20;;
1721;SDS011;858;53.190;8.596;2023-04-24T04:50:57;8.90;;;8.00;;
1721;SDS011;858;53.190;8.596;2023-04-24T04:53:24;9.70;;;8.70;;
1721;SDS011;858;53.190;8.596;2023-04-24T04:55:50;9.20;;;8.40;;
1721;SDS011;858;53.190;8.596;2023-04-24T04:58:17;8.45;;;7.65;;
1721;SDS011;858;53.190;8.596;2023-04-24T05:00:43;9.27;;;8.27;;
1721;SDS011;858;53.190;8.596;2023-04-24T05:03:10;7.88;;;7.07;;
1721;SDS011;858;53.190;8.596;2023-04-24T05:05:37;10.27;;;8.35;;
1721;SDS011;858;53.190;8.596;2023-04-24T05:08:05;8.13;;;7.32;;
1721;SDS011;858;53.190;8.596;2023-04-24T05:10:32;9.45;;;8.13;;
1721;SDS011;858;53.190;8.596;2023-04-24T05:12:58;7.55;;;6.85;;
1721;SDS011;858;53.190;8.596;2023-04-24T05:15:26;8.60;;;7.53;;
1721;SDS011;858;53.190;8.596;2023-04-24T05:17:52;7.95;;;7.18;;
1721;SDS011;858;53.190;8.596;2023-04-24T05:20:18;8.13;;;7.13;;
1721;SDS011;858;53.190;8.596;2023-04-24T05:22:46;8.07;;;7.28;;
1721;SDS011;858;53.190;8.596;2023-04-24T05:25:13;7.47;;;6.78;;
1721;SDS011;858;53.190;8.596;2023-04-24T05:27:39;8.60;;;7.22;;
1721;SDS011;858;53.190;8.596;2023-04-24T05:30:06;8.55;;;6.68;;
1721;SDS011;858;53.190;8.596;2023-04-24T05:32:33;7.35;;;6.65;;
1721;SDS011;858;53.190;8.596;2023-04-24T05:34:59;8.27;;;7.30;;
1721;SDS011;858;53.190;8.596;2023-04-24T05:37:26;9.13;;;7.53;;
1721;SDS011;858;53.190;8.596;2023-04-24T05:39:54;7.50;;;6.80;;
1721;SDS011;858;53.190;8.596;2023-04-24T05:42:20;8.20;;;6.40;;
1721;SDS011;858;53.190;8.596;2023-04-24T05:44:47;7.60;;;6.80;;
1721;SDS011;858;53.190;8.596;2023-04-24T05:47:13;8.30;;;7.40;;
1721;SDS011;858;53.190;8.596;2023-04-24T05:49:40;8.30;;;7.10;;
1721;SDS011;858;53.190;8.596;2023-04-24T05:52:07;8.00;;;6.90;;
1721;SDS011;858;53.190;8.596;2023-04-24T05:54:33;8.50;;;7.13;;
1721;SDS011;858;53.190;8.596;2023-04-24T05:57:01;8.52;;;7.63;;
1721;SDS011;858;53.190;8.596;2023-04-24T05:59:32;8.15;;;7.28;;
1721;SDS011;858;53.190;8.596;2023-04-24T06:01:58;9.10;;;8.07;;
1721;SDS011;858;53.190;8.596;2023-04-24T06:04:26;9.55;;;6.97;;
1721;SDS011;858;53.190;8.596;2023-04-24T06:06:53;9.30;;;8.30;;
1721;SDS011;858;53.190;8.596;2023-04-24T06:09:21;9.63;;;8.00;;
1721;SDS011;858;53.190;8.596;2023-04-24T06:11:47;11.68;;;7.80;;
1721;SDS011;858;53.190;8.596;2023-04-24T06:14:15;10.30;;;8.02;;
1721;SDS011;858;53.190;8.596;2023-04-24T06:16:41;10.93;;;7.80;;
1721;SDS011;858;53.190;8.596;2023-04-24T06:19:08;9.57;;;8.07;;
1721;SDS011;858;53.190;8.596;2023-04-24T06:21:34;9.43;;;7.85;;
1721;SDS011;858;53.190;8.596;2023-04-24T06:24:01;10.10;;;7.20;;
1721;SDS011;858;53.190;8.596;2023-04-24T06:26:28;10.68;;;7.97;;
1721;SDS011;858;53.190;8.596;2023-04-24T06:28:55;9.00;;;7.65;;
1721;SDS011;858;53.190;8.596;2023-04-24T06:31:22;8.40;;;7.43;;
1721;SDS011;858;53.190;8.596;2023-04-24T06:33:49;9.35;;;7.70;;
1721;SDS011;858;53.190;8.596;2023-04-24T06:36:15;8.77;;;7.35;;
1721;SDS011;858;53.190;8.596;2023-04-24T06:38:42;9.50;;;7.80;;
1721;SDS011;858;53.190;8.596;2023-04-24T06:41:09;10.10;;;8.10;;
1721;SDS011;858;53.190;8.596;2023-04-24T06:43:35;9.83;;;8.03;;
1721;SDS011;858;53.190;8.596;2023-04-24T06:46:02;10.25;;;8.35;;
1721;SDS011;858;53.190;8.596;2023-04-24T06:48:30;12.10;;;9.15;;
1721;SDS011;858;53.190;8.596;2023-04-24T06:50:56;10.27;;;9.07;;
1721;SDS011;858;53.190;8.596;2023-04-24T06:53:23;11.63;;;9.43;;
1721;SDS011;858;53.190;8.596;2023-04-24T06:55:50;11.47;;;9.20;;
1721;SDS011;858;53.190;8.596;2023-04-24T06:58:17;10.73;;;9.40;;
1721;SDS011;858;53.190;8.596;2023-04-24T07:00:44;12.00;;;9.63;;
1721;SDS011;858;53.190;8.596;2023-04-24T07:03:10;12.05;;;9.90;;
1721;SDS011;858;53.190;8.596;2023-04-24T07:05:38;12.88;;;10.77;;
1721;SDS011;858;53.190;8.596;2023-04-24T07:08:05;13.50;;;10.60;;
1721;SDS011;858;53.190;8.596;2023-04-24T07:10:31;16.17;;;10.65;;
1721;SDS011;858;53.190;8.596;2023-04-24T07:12:59;12.45;;;10.38;;
1721;SDS011;858;53.190;8.596;2023-04-24T07:15:25;15.37;;;11.37;;
1721;SDS011;858;53.190;8.596;2023-04-24T07:17:52;12.52;;;10.60;;
1721;SDS011;858;53.190;8.596;2023-04-24T07:20:18;12.45;;;10.75;;
1721;SDS011;858;53.190;8.596;2023-04-24T07:22:46;12.52;;;10.90;;
1721;SDS011;858;53.190;8.596;2023-04-24T07:25:14;14.50;;;10.90;;
1721;SDS011;858;53.190;8.596;2023-04-24T07:27:40;12.77;;;11.40;;
1721;SDS011;858;53.190;8.596;2023-04-24T07:30:07;12.93;;;10.45;;
1721;SDS011;858;53.190;8.596;2023-04-24T07:32:34;13.77;;;11.30;;
1721;SDS011;858;53.190;8.596;2023-04-24T07:35:00;12.40;;;11.20;;
1721;SDS011;858;53.190;8.596;2023-04-24T07:37:27;14.38;;;11.70;;
1721;SDS011;858;53.190;8.596;2023-04-24T07:39:56;12.35;;;10.50;;
1721;SDS011;858;53.190;8.596;2023-04-24T07:42:22;15.57;;;10.90;;
1721;SDS011;858;53.190;8.596;2023-04-24T07:44:48;13.18;;;10.82;;
1721;SDS011;858;53.190;8.596;2023-04-24T07:47:16;13.85;;;11.32;;
1721;SDS011;858;53.190;8.596;2023-04-24T07:49:42;12.68;;;10.30;;
1721;SDS011;858;53.190;8.596;2023-04-24T07:52:10;13.40;;;11.20;;
1721;SDS011;858;53.190;8.596;2023-04-24T07:54:36;13.50;;;11.30;;
1721;SDS011;858;53.190;8.596;2023-04-24T07:57:04;11.52;;;10.32;;
1721;SDS011;858;53.190;8.596;2023-04-24T07:59:32;12.18;;;10.25;;
1721;SDS011;858;53.190;8.596;2023-04-24T08:01:58;10.70;;;9.60;;
1721;SDS011;858;53.190;8.596;2023-04-24T08:04:27;11.00;;;9.90;;
1721;SDS011;858;53.190;8.596;2023-04-24T08:06:55;13.00;;;10.50;;
1721;SDS011;858;53.190;8.596;2023-04-24T08:09:21;13.65;;;10.30;;
1721;SDS011;858;53.190;8.596;2023-04-24T08:11:48;10.18;;;9.10;;
1721;SDS011;858;53.190;8.596;2023-04-24T08:14:16;11.43;;;8.93;;
1721;SDS011;858;53.190;8.596;2023-04-24T08:16:42;11.40;;;9.05;;
1721;SDS011;858;53.190;8.596;2023-04-24T08:19:08;10.50;;;9.50;;
1721;SDS011;858;53.190;8.596;2023-04-24T08:21:35;9.20;;;8.20;;
1721;SDS011;858;53.190;8.596;2023-04-24T08:24:03;10.30;;;9.02;;
1721;SDS011;858;53.190;8.596;2023-04-24T08:26:32;10.63;;;9.25;;
1721;SDS011;858;53.190;8.596;2023-04-24T08:28:59;12.30;;;10.20;;
1721;SDS011;858;53.190;8.596;2023-04-24T08:31:27;14.20;;;10.10;;
1721;SDS011;858;53.190;8.596;2023-04-24T08:33:53;11.70;;;9.20;;
1721;SDS011;858;53.190;8.596;2023-04-24T08:36:19;11.27;;;9.90;;
1721;SDS011;858;53.190;8.596;2023-04-24T08:38:46;10.95;;;9.48;;
1721;SDS011;858;53.190;8.596;2023-04-24T08:41:13;10.95;;;9.07;;
1721;SDS011;858;53.190;8.596;2023-04-24T08:43:40;11.63;;;9.45;;
1721;SDS011;858;53.190;8.596;2023-04-24T08:46:08;13.90;;;10.50;;
1721;SDS011;858;53.190;8.596;2023-04-24T08:48:36;12.48;;;10.10;;
1721;SDS011;858;53.190;8.596;2023-04-24T08:51:04;12.70;;;10.00;;
1721;SDS011;858;53.190;8.596;2023-04-24T08:53:31;13.57;;;10.65;;
1721;SDS011;858;53.190;8.596;2023-04-24T08:55:58;12.48;;;10.20;;
1721;SDS011;858;53.190;8.596;2023-04-24T08:58:26;12.63;;;11.20;;
1721;SDS011;858;53.190;8.596;2023-04-24T09:00:53;12.57;;;10.75;;
1721;SDS011;858;53.190;8.596;2023-04-24T09:03:20;12.27;;;10.25;;
1721;SDS011;858;53.190;8.596;2023-04-24T09:05:49;14.48;;;10.48;;
1721;SDS011;858;53.190;8.596;2023-04-24T09:08:16;12.80;;;10.20;;
1721;SDS011;858;53.190;8.596;2023-04-24T09:10:43;10.70;;;9.60;;
1721;SDS011;858;53.190;8.596;2023-04-24T09:13:10;12.95;;;9.95;;
1721;SDS011;858;53.190;8.596;2023-04-24T09:15:36;13.90;;;9.57;;
1721;SDS011;858;53.190;8.596;2023-04-24T09:18:04;16.13;;;11.00;;
1721;SDS011;858;53.190;8.596;2023-04-24T09:20:30;10.90;;;9.55;;
1721;SDS011;858;53.190;8.596;2023-04-24T09:22:58;11.90;;;10.23;;
1721;SDS011;858;53.190;8.596;2023-04-24T09:25:25;10.93;;;9.80;;
1721;SDS011;858;53.190;8.596;2023-04-24T09:27:58;13.18;;;10.23;;
1721;SDS011;858;53.190;8.596;2023-04-24T09:30:28;12.63;;;10.10;;
1721;SDS011;858;53.190;8.596;2023-04-24T09:35:36;12.38;;;10.52;;
1721;SDS011;858;53.190;8.596;2023-04-24T09:38:04;12.80;;;11.30;;
1721;SDS011;858;53.190;8.596;2023-04-24T09:40:31;15.82;;;11.90;;
1721;SDS011;858;53.190;8.596;2023-04-24T09:43:00;14.00;;;12.00;;
1721;SDS011;858;53.190;8.596;2023-04-24T09:45:27;13.68;;;12.27;;
1721;SDS011;858;53.190;8.596;2023-04-24T09:47:55;14.65;;;12.50;;
1721;SDS011;858;53.190;8.596;2023-04-24T09:50:23;13.68;;;12.15;;
1721;SDS011;858;53.190;8.596;2023-04-24T09:52:56;15.60;;;12.02;;
1721;SDS011;858;53.190;8.596;2023-04-24T09:55:24;15.93;;;12.90;;
1721;SDS011;858;53.190;8.596;2023-04-24T09:57:52;16.55;;;12.85;;
1721;SDS011;858;53.190;8.596;2023-04-24T10:00:22;15.57;;;10.50;;
1721;SDS011;858;53.190;8.596;2023-04-24T10:02:58;15.63;;;11.60;;
1721;SDS011;858;53.190;8.596;2023-04-24T10:05:27;11.57;;;10.38;;
1721;SDS011;858;53.190;8.596;2023-04-24T10:07:55;11.13;;;10.03;;
1721;SDS011;858;53.190;8.596;2023-04-24T10:10:24;11.45;;;9.73;;
1721;SDS011;858;53.190;8.596;2023-04-24T10:12:50;12.13;;;8.90;;
1721;SDS011;858;53.190;8.596;2023-04-24T10:15:17;11.90;;;9.57;;
1721;SDS011;858;53.190;8.596;2023-04-24T10:17:46;11.50;;;9.70;;
1721;SDS011;858;53.190;8.596;2023-04-24T10:20:17;12.93;;;10.52;;
1721;SDS011;858;53.190;8.596;2023-04-24T10:22:44;12.07;;;10.88;;
1721;SDS011;858;53.190;8.596;2023-04-24T10:25:13;13.10;;;11.80;;
1721;SDS011;858;53.190;8.596;2023-04-24T10:27:41;14.57;;;12.55;;
1721;SDS011;858;53.190;8.596;2023-04-24T10:30:08;16.00;;;12.93;;
1721;SDS011;858;53.190;8.596;2023-04-24T10:32:34;16.75;;;14.00;;
1721;SDS011;858;53.190;8.596;2023-04-24T10:35:02;17.35;;;14.90;;
1721;SDS011;858;53.190;8.596;2023-04-24T10:37:28;16.90;;;15.10;;
1721;SDS011;858;53.190;8.596;2023-04-24T10:40:01;15.02;;;13.38;;
1721;SDS011;858;53.190;8.596;2023-04-24T10:42:28;14.75;;;11.63;;
1721;SDS011;858;53.190;8.596;2023-04-24T10:44:57;12.80;;;11.50;;
1721;SDS011;858;53.190;8.596;2023-04-24T10:47:23;13.13;;;11.55;;
1721;SDS011;858;53.190;8.596;2023-04-24T10:49:50;13.48;;;11.75;;
1721;SDS011;858;53.190;8.596;2023-04-24T10:52:16;15.55;;;13.27;;
1721;SDS011;858;53.190;8.596;2023-04-24T10:54:44;14.50;;;13.00;;
1721;SDS011;858;53.190;8.596;2023-04-24T10:57:26;15.87;;;12.60;;
1721;SDS011;858;53.190;8.596;2023-04-24T11:02:38;17.13;;;14.05;;
1721;SDS011;858;53.190;8.596;2023-04-24T11:05:05;17.35;;;14.50;;
1721;SDS011;858;53.190;8.596;2023-04-24T11:07:39;16.27;;;14.35;;
1721;SDS011;858;53.190;8.596;2023-04-24T11:10:25;16.08;;;14.38;;
1721;SDS011;858;53.190;8.596;2023-04-24T11:12:52;16.27;;;14.57;;
1721;SDS011;858;53.190;8.596;2023-04-24T11:15:19;16.83;;;15.02;;
1721;SDS011;858;53.190;8.596;2023-04-24T11:17:46;20.03;;;15.37;;
1721;SDS011;858;53.190;8.596;2023-04-24T11:20:17;18.25;;;15.30;;
1721;SDS011;858;53.190;8.596;2023-04-24T11:22:43;16.45;;;14.75;;
1721;SDS011;858;53.190;8.596;2023-04-24T11:25:10;16.88;;;15.02;;
1721;SDS011;858;53.190;8.596;2023-04-24T11:27:38;16.27;;;14.57;;
1721;SDS011;858;53.190;8.596;2023-04-24T11:30:05;17.33;;;15.20;;
1721;SDS011;858;53.190;8.596;2023-04-24T11:32:34;19.45;;;15.90;;
1721;SDS011;858;53.190;8.596;2023-04-24T11:35:02;19.67;;;17.05;;
1721;SDS011;858;53.190;8.596;2023-04-24T11:37:33;19.00;;;16.65;;
1721;SDS011;858;53.190;8.596;2023-04-24T11:40:00;19.27;;;17.38;;
1721;SDS011;858;53.190;8.596;2023-04-24T11:42:27;19.48;;;17.40;;
1721;SDS011;858;53.190;8.596;2023-04-24T11:44:54;21.02;;;17.10;;
1721;SDS011;858;53.190;8.596;2023-04-24T11:47:31;17.77;;;15.98;;
1721;SDS011;858;53.190;8.596;2023-04-24T11:49:59;16.33;;;14.52;;
1721;SDS011;858;53.190;8.596;2023-04-24T11:52:27;16.00;;;13.80;;
1721;SDS011;858;53.190;8.596;2023-04-24T11:54:54;13.48;;;11.55;;
1721;SDS011;858;53.190;8.596;2023-04-24T11:57:21;11.73;;;9.88;;
1721;SDS011;858;53.190;8.596;2023-04-24T11:59:48;9.13;;;8.05;;
1721;SDS011;858;53.190;8.596;2023-04-24T12:02:21;7.00;;;6.30;;
1721;SDS011;858;53.190;8.596;2023-04-24T12:04:47;7.68;;;5.90;;
1721;SDS011;858;53.190;8.596;2023-04-24T12:07:14;7.05;;;4.90;;
1721;SDS011;858;53.190;8.596;2023-04-24T12:09:42;7.77;;;5.90;;
1721;SDS011;858;53.190;8.596;2023-04-24T12:12:10;6.50;;;5.03;;
1721;SDS011;858;53.190;8.596;2023-04-24T12:17:25;6.53;;;4.95;;
1721;SDS011;858;53.190;8.596;2023-04-24T12:19:56;6.60;;;5.05;;
1721;SDS011;858;53.190;8.596;2023-04-24T12:22:23;7.90;;;5.10;;
1721;SDS011;858;53.190;8.596;2023-04-24T12:24:57;5.18;;;4.40;;
1721;SDS011;858;53.190;8.596;2023-04-24T12:27:29;7.13;;;4.80;;
1721;SDS011;858;53.190;8.596;2023-04-24T12:29:56;6.72;;;4.70;;
1721;SDS011;858;53.190;8.596;2023-04-24T12:32:23;5.30;;;4.57;;
1721;SDS011;858;53.190;8.596;2023-04-24T12:34:50;5.40;;;4.90;;
1721;SDS011;858;53.190;8.596;2023-04-24T12:37:16;8.77;;;5.78;;
1721;SDS011;858;53.190;8.596;2023-04-24T12:39:44;7.90;;;6.50;;
1721;SDS011;858;53.190;8.596;2023-04-24T12:42:26;7.15;;;5.22;;
1721;SDS011;858;53.190;8.596;2023-04-24T12:44:56;5.85;;;5.00;;
1721;SDS011;858;53.190;8.596;2023-04-24T12:47:22;6.95;;;5.55;;
1721;SDS011;858;53.190;8.596;2023-04-24T12:49:48;5.20;;;4.70;;
1721;SDS011;858;53.190;8.596;2023-04-24T12:52:17;4.88;;;4.35;;
1721;SDS011;858;53.190;8.596;2023-04-24T12:54:44;5.60;;;4.10;;
1721;SDS011;858;53.190;8.596;2023-04-24T12:57:11;5.07;;;4.07;;
1721;SDS011;858;53.190;8.596;2023-04-24T12:59:38;9.50;;;6.97;;
1721;SDS011;858;53.190;8.596;2023-04-24T13:02:06;11.80;;;9.98;;
1721;SDS011;858;53.190;8.596;2023-04-24T13:04:34;14.98;;;9.52;;
1721;SDS011;858;53.190;8.596;2023-04-24T13:07:00;14.23;;;11.18;;
1721;SDS011;858;53.190;8.596;2023-04-24T13:09:26;18.08;;;12.20;;
1721;SDS011;858;53.190;8.596;2023-04-24T13:11:53;16.80;;;13.00;;
1721;SDS011;858;53.190;8.596;2023-04-24T13:14:20;18.98;;;13.48;;
1721;SDS011;858;53.190;8.596;2023-04-24T13:16:48;17.70;;;14.05;;
1721;SDS011;858;53.190;8.596;2023-04-24T13:19:14;18.77;;;13.60;;
1721;SDS011;858;53.190;8.596;2023-04-24T13:21:41;16.90;;;12.65;;
1721;SDS011;858;53.190;8.596;2023-04-24T13:24:07;18.07;;;12.70;;
1721;SDS011;858;53.190;8.596;2023-04-24T13:26:34;16.02;;;11.20;;
1721;SDS011;858;53.190;8.596;2023-04-24T13:29:01;18.23;;;11.52;;
1721;SDS011;858;53.190;8.596;2023-04-24T13:31:28;14.77;;;9.55;;
1721;SDS011;858;53.190;8.596;2023-04-24T13:33:59;14.80;;;10.40;;
1721;SDS011;858;53.190;8.596;2023-04-24T13:36:25;14.43;;;10.10;;
1721;SDS011;858;53.190;8.596;2023-04-24T13:38:51;13.65;;;9.38;;
1721;SDS011;858;53.190;8.596;2023-04-24T13:41:18;16.07;;;9.80;;
1721;SDS011;858;53.190;8.596;2023-04-24T13:43:44;13.48;;;8.95;;
1721;SDS011;858;53.190;8.596;2023-04-24T13:46:11;13.23;;;8.80;;
1721;SDS011;858;53.190;8.596;2023-04-24T13:48:37;10.88;;;9.43;;
1721;SDS011;858;53.190;8.596;2023-04-24T13:51:05;10.87;;;8.37;;
1721;SDS011;858;53.190;8.596;2023-04-24T13:53:31;15.77;;;9.95;;
1721;SDS011;858;53.190;8.596;2023-04-24T13:56:00;14.63;;;9.55;;
1721;SDS011;858;53.190;8.596;2023-04-24T13:58:27;16.02;;;10.02;;
1721;SDS011;858;53.190;8.596;2023-04-24T14:00:55;15.65;;;10.20;;
1721;SDS011;858;53.190;8.596;2023-04-24T14:03:21;16.38;;;11.00;;
1721;SDS011;858;53.190;8.596;2023-04-24T14:05:48;18.33;;;10.80;;
1721;SDS011;858;53.190;8.596;2023-04-24T14:08:16;17.17;;;10.07;;
1721;SDS011;858;53.190;8.596;2023-04-24T14:10:42;14.80;;;9.75;;
1721;SDS011;858;53.190;8.596;2023-04-24T14:13:09;18.15;;;9.60;;
1721;SDS011;858;53.190;8.596;2023-04-24T14:15:35;12.75;;;9.00;;
1721;SDS011;858;53.190;8.596;2023-04-24T14:18:02;14.32;;;9.15;;
1721;SDS011;858;53.190;8.596;2023-04-24T14:20:29;15.65;;;9.02;;
1721;SDS011;858;53.190;8.596;2023-04-24T14:22:56;14.02;;;8.85;;
1721;SDS011;858;53.190;8.596;2023-04-24T14:25:26;12.77;;;8.70;;
1721;SDS011;858;53.190;8.596;2023-04-24T14:27:53;13.00;;;8.35;;
1721;SDS011;858;53.190;8.596;2023-04-24T14:30:19;13.52;;;8.80;;
1721;SDS011;858;53.190;8.596;2023-04-24T14:32:45;13.25;;;9.52;;
1721;SDS011;858;53.190;8.596;2023-04-24T14:35:12;15.93;;;9.18;;
1721;SDS011;858;53.190;8.596;2023-04-24T14:37:39;16.88;;;9.00;;
1721;SDS011;858;53.190;8.596;2023-04-24T14:40:08;16.27;;;8.17;;
1721;SDS011;858;53.190;8.596;2023-04-24T14:42:36;15.02;;;7.85;;
1721;SDS011;858;53.190;8.596;2023-04-24T14:45:02;10.45;;;7.93;;
1721;SDS011;858;53.190;8.596;2023-04-24T14:47:29;14.18;;;8.02;;
1721;SDS011;858;53.190;8.596;2023-04-24T14:49:55;16.08;;;8.95;;
1721;SDS011;858;53.190;8.596;2023-04-24T14:52:22;12.77;;;8.10;;
1721;SDS011;858;53.190;8.596;2023-04-24T14:54:48;19.55;;;8.88;;
1721;SDS011;858;53.190;8.596;2023-04-24T14:57:15;15.25;;;8.60;;
1721;SDS011;858;53.190;8.596;2023-04-24T14:59:42;13.02;;;8.45;;
1721;SDS011;858;53.190;8.596;2023-04-24T15:02:09;12.75;;;8.02;;
1721;SDS011;858;53.190;8.596;2023-04-24T15:04:38;14.80;;;8.13;;
1721;SDS011;858;53.190;8.596;2023-04-24T15:07:04;13.60;;;7.22;;
1721;SDS011;858;53.190;8.596;2023-04-24T15:09:30;14.30;;;8.63;;
1721;SDS011;858;53.190;8.596;2023-04-24T15:11:57;14.23;;;8.45;;
1721;SDS011;858;53.190;8.596;2023-04-24T15:14:24;9.80;;;7.00;;
1721;SDS011;858;53.190;8.596;2023-04-24T15:16:51;11.10;;;6.80;;
1721;SDS011;858;53.190;8.596;2023-04-24T15:19:18;11.23;;;6.40;;
1721;SDS011;858;53.190;8.596;2023-04-24T15:21:44;11.60;;;5.70;;
1721;SDS011;858;53.190;8.596;2023-04-24T15:24:11;10.40;;;5.13;;
1721;SDS011;858;53.190;8.596;2023-04-24T15:26:37;11.18;;;4.43;;